sensor_id;sensor_type;location;lat;lon;timestamp;temperature;humidity
76750;DHT22;66447;35.844;14.468;2024-02-04T00:04:54;15.18;118.99
76750;DHT22;66447;35.844;14.468;2024-02-04T00:19:57;15.31;118.99
76750;DHT22;66447;35.844;14.468;2024-02-04T00:34:59;14.98;118.99
76750;DHT22;66447;35.844;14.468;2024-02-04T00:50:01;15.27;118.99
76750;DHT22;66447;35.844;14.468;2024-02-04T01:05:04;14.96;118.99
76750;DHT22;66447;35.844;14.468;2024-02-04T01:20:07;15.44;118.99
76750;DHT22;66447;35.844;14.468;2024-02-04T01:35:09;15.00;118.99
76750;DHT22;66447;35.844;14.468;2024-02-04T01:50:12;14.27;118.99
76750;DHT22;66447;35.844;14.468;2024-02-04T02:05:14;14.00;118.99
76750;DHT22;66447;35.844;14.468;2024-02-04T02:20:52;14.75;118.99
76750;DHT22;66447;35.844;14.468;2024-02-04T02:36:00;15.16;118.99
76750;DHT22;66447;35.844;14.468;2024-02-04T02:51:05;15.15;118.99
76750;DHT22;66447;35.844;14.468;2024-02-04T03:06:07;14.99;118.99
76750;DHT22;66447;35.844;14.468;2024-02-04T03:21:15;15.14;118.99
76750;DHT22;66447;35.844;14.468;2024-02-04T03:36:23;15.28;118.99
76750;DHT22;66447;35.844;14.468;2024-02-04T03:51:25;13.94;118.99
76750;DHT22;66447;35.844;14.468;2024-02-04T04:06:27;15.10;118.99
76750;DHT22;66447;35.844;14.468;2024-02-04T04:21:29;15.18;118.99
76750;DHT22;66447;35.844;14.468;2024-02-04T04:36:29;15.31;118.99
76750;DHT22;66447;35.844;14.468;2024-02-04T04:51:30;15.54;118.99
76750;DHT22;66447;35.844;14.468;2024-02-04T05:06:31;14.91;118.99
76750;DHT22;66447;35.844;14.468;2024-02-04T05:21:32;14.72;118.99
76750;DHT22;66447;35.844;14.468;2024-02-04T05:36:33;15.60;118.99
76750;DHT22;66447;35.844;14.468;2024-02-04T05:51:41;15.58;118.99
76750;DHT22;66447;35.844;14.468;2024-02-04T06:06:41;15.31;118.99
76750;DHT22;66447;35.844;14.468;2024-02-04T06:21:42;15.72;118.99
76750;DHT22;66447;35.844;14.468;2024-02-04T06:36:44;16.30;118.99
76750;DHT22;66447;35.844;14.468;2024-02-04T06:51:46;17.00;118.99
76750;DHT22;66447;35.844;14.468;2024-02-04T07:06:49;16.44;118.99
76750;DHT22;66447;35.844;14.468;2024-02-04T07:21:51;17.06;118.99
76750;DHT22;66447;35.844;14.468;2024-02-04T07:36:52;16.32;118.99
76750;DHT22;66447;35.844;14.468;2024-02-04T07:51:53;16.75;118.99
76750;DHT22;66447;35.844;14.468;2024-02-04T08:06:55;18.47;118.99
76750;DHT22;66447;35.844;14.468;2024-02-04T08:21:56;20.45;118.99
76750;DHT22;66447;35.844;14.468;2024-02-04T08:36:58;21.68;118.99
76750;DHT22;66447;35.844;14.468;2024-02-04T08:51:59;19.85;118.99
76750;DHT22;66447;35.844;14.468;2024-02-04T09:07:00;21.78;118.99
76750;DHT22;66447;35.844;14.468;2024-02-04T09:22:01;22.87;118.99
76750;DHT22;66447;35.844;14.468;2024-02-04T09:37:02;21.39;68.50
76750;DHT22;66447;35.844;14.468;2024-02-04T09:52:07;22.84;-6.00
76750;DHT22;66447;35.844;14.468;2024-02-04T10:07:09;21.63;-6.00
76750;DHT22;66447;35.844;14.468;2024-02-04T10:22:10;23.62;-6.00
76750;DHT22;66447;35.844;14.468;2024-02-04T10:37:11;21.85;-6.00
76750;DHT22;66447;35.844;14.468;2024-02-04T10:52:13;20.66;-6.00
76750;DHT22;66447;35.844;14.468;2024-02-04T11:07:15;21.91;-6.00
76750;DHT22;66447;35.844;14.468;2024-02-04T11:37:41;19.28;118.99
76750;DHT22;66447;35.844;14.468;2024-02-04T11:52:45;19.71;118.99
76750;DHT22;66447;35.844;14.468;2024-02-04T12:07:50;18.93;118.99
76750;DHT22;66447;35.844;14.468;2024-02-04T12:22:52;19.42;118.99
76750;DHT22;66447;35.844;14.468;2024-02-04T12:37:57;20.11;118.99
76750;DHT22;66447;35.844;14.468;2024-02-04T12:53:07;19.31;118.99
76750;DHT22;66447;35.844;14.468;2024-02-04T13:08:11;19.65;118.99
76750;DHT22;66447;35.844;14.468;2024-02-04T13:23:13;19.35;118.99
76750;DHT22;66447;35.844;14.468;2024-02-04T13:38:14;19.14;118.99
76750;DHT22;66447;35.844;14.468;2024-02-04T13:53:15;18.46;118.99
76750;DHT22;66447;35.844;14.468;2024-02-04T14:08:16;18.81;118.99
76750;DHT22;66447;35.844;14.468;2024-02-04T14:23:17;18.71;118.99
76750;DHT22;66447;35.844;14.468;2024-02-04T14:38:18;18.32;118.99
76750;DHT22;66447;35.844;14.468;2024-02-04T14:53:19;18.18;118.99
76750;DHT22;66447;35.844;14.468;2024-02-04T15:08:19;17.49;118.99
76750;DHT22;66447;35.844;14.468;2024-02-04T15:23:21;18.27;118.99
76750;DHT22;66447;35.844;14.468;2024-02-04T15:38:22;17.29;118.99
76750;DHT22;66447;35.844;14.468;2024-02-04T15:53:24;17.55;118.99
76750;DHT22;66447;35.844;14.468;2024-02-04T16:08:25;16.65;118.99
76750;DHT22;66447;35.844;14.468;2024-02-04T16:23:26;16.22;118.99
76750;DHT22;66447;35.844;14.468;2024-02-04T16:38:29;15.89;118.99
76750;DHT22;66447;35.844;14.468;2024-02-04T16:53:30;16.07;118.99
76750;DHT22;66447;35.844;14.468;2024-02-04T17:08:32;16.07;118.99
76750;DHT22;66447;35.844;14.468;2024-02-04T17:23:37;16.04;118.99
76750;DHT22;66447;35.844;14.468;2024-02-04T17:38:38;16.20;118.99
76750;DHT22;66447;35.844;14.468;2024-02-04T17:53:40;15.85;118.99
76750;DHT22;66447;35.844;14.468;2024-02-04T18:08:43;16.18;118.99
76750;DHT22;66447;35.844;14.468;2024-02-04T18:23:44;16.29;118.99
76750;DHT22;66447;35.844;14.468;2024-02-04T18:38:45;16.46;118.99
76750;DHT22;66447;35.844;14.468;2024-02-04T18:53:48;16.65;118.99
76750;DHT22;66447;35.844;14.468;2024-02-04T19:08:49;16.77;118.99
76750;DHT22;66447;35.844;14.468;2024-02-04T19:23:50;16.00;118.99
76750;DHT22;66447;35.844;14.468;2024-02-04T19:38:51;16.74;118.99
76750;DHT22;66447;35.844;14.468;2024-02-04T19:53:52;16.17;118.99
76750;DHT22;66447;35.844;14.468;2024-02-04T20:08:53;16.45;118.99
76750;DHT22;66447;35.844;14.468;2024-02-04T20:23:55;16.47;118.99
76750;DHT22;66447;35.844;14.468;2024-02-04T20:38:58;16.54;118.99
76750;DHT22;66447;35.844;14.468;2024-02-04T20:54:00;16.40;118.99
76750;DHT22;66447;35.844;14.468;2024-02-04T21:09:02;16.76;118.99
76750;DHT22;66447;35.844;14.468;2024-02-04T21:24:06;15.96;118.99
76750;DHT22;66447;35.844;14.468;2024-02-04T21:39:07;16.50;118.99
76750;DHT22;66447;35.844;14.468;2024-02-04T21:54:08;16.77;118.99
76750;DHT22;66447;35.844;14.468;2024-02-04T22:09:10;17.15;118.99
76750;DHT22;66447;35.844;14.468;2024-02-04T22:24:11;17.28;118.99
76750;DHT22;66447;35.844;14.468;2024-02-04T22:39:12;17.21;118.99
76750;DHT22;66447;35.844;14.468;2024-02-04T22:54:13;15.62;118.99
76750;DHT22;66447;35.844;14.468;2024-02-04T23:09:14;15.96;118.99
76750;DHT22;66447;35.844;14.468;2024-02-04T23:24:17;16.15;118.99
76750;DHT22;66447;35.844;14.468;2024-02-04T23:39:18;15.62;118.99
76750;DHT22;66447;35.844;14.468;2024-02-04T23:54:20;15.76;118.99
